sensor_id;sensor_type;location;lat;lon;timestamp;pressure;altitude;pressure_sealevel;temperature;humidity
56402;BME280;42299;35.160;26.100;2022-12-28T00:01:06;102230.53;;;11.27;100.00
56402;BME280;42299;35.160;26.100;2022-12-28T00:02:28;102226.16;;;11.27;100.00
56402;BME280;42299;35.160;26.100;2022-12-28T00:03:51;102228.91;;;11.30;100.00
56402;BME280;42299;35.160;26.100;2022-12-28T00:05:14;102228.06;;;11.31;100.00
56402;BME280;42299;35.160;26.100;2022-12-28T00:06:37;102225.34;;;11.30;100.00
56402;BME280;42299;35.160;26.100;2022-12-28T00:07:58;102231.59;;;11.32;100.00
56402;BME280;42299;35.160;26.100;2022-12-28T00:09:21;102222.72;;;11.30;100.00
56402;BME280;42299;35.160;26.100;2022-12-28T00:10:42;102225.25;;;11.27;100.00
56402;BME280;42299;35.160;26.100;2022-12-28T00:12:04;102218.94;;;11.23;100.00
56402;BME280;42299;35.160;26.100;2022-12-28T00:13:26;102222.47;;;11.22;100.00
56402;BME280;42299;35.160;26.100;2022-12-28T00:14:50;102230.38;;;11.22;100.00
56402;BME280;42299;35.160;26.100;2022-12-28T00:16:19;102219.84;;;11.24;100.00
56402;BME280;42299;35.160;26.100;2022-12-28T00:17:42;102218.94;;;11.23;100.00
56402;BME280;42299;35.160;26.100;2022-12-28T00:19:06;102219.00;;;11.25;100.00
56402;BME280;42299;35.160;26.100;2022-12-28T00:20:27;102216.38;;;11.25;100.00
56402;BME280;42299;35.160;26.100;2022-12-28T00:21:52;102217.19;;;11.24;100.00
56402;BME280;42299;35.160;26.100;2022-12-28T00:23:14;102219.81;;;11.22;100.00
56402;BME280;42299;35.160;26.100;2022-12-28T00:24:36;102217.16;;;11.22;100.00
56402;BME280;42299;35.160;26.100;2022-12-28T00:26:05;102216.28;;;11.22;100.00
56402;BME280;42299;35.160;26.100;2022-12-28T00:27:26;102222.47;;;11.22;100.00
56402;BME280;42299;35.160;26.100;2022-12-28T00:28:48;102216.28;;;11.23;100.00
56402;BME280;42299;35.160;26.100;2022-12-28T00:30:12;102215.38;;;11.21;100.00
56402;BME280;42299;35.160;26.100;2022-12-28T00:31:34;102213.50;;;11.18;100.00
56402;BME280;42299;35.160;26.100;2022-12-28T00:32:56;102218.69;;;11.15;100.00
56402;BME280;42299;35.160;26.100;2022-12-28T00:34:18;102217.66;;;11.12;100.00
56402;BME280;42299;35.160;26.100;2022-12-28T00:35:39;102216.69;;;11.10;100.00
56402;BME280;42299;35.160;26.100;2022-12-28T00:37:02;102215.84;;;11.11;100.00
56402;BME280;42299;35.160;26.100;2022-12-28T00:38:25;102222.88;;;11.10;100.00
56402;BME280;42299;35.160;26.100;2022-12-28T00:39:46;102216.69;;;11.10;100.00
56402;BME280;42299;35.160;26.100;2022-12-28T00:41:09;102212.31;;;11.10;100.00
56402;BME280;42299;35.160;26.100;2022-12-28T00:42:30;102207.94;;;11.11;100.00
56402;BME280;42299;35.160;26.100;2022-12-28T00:43:53;102216.81;;;11.13;100.00
56402;BME280;42299;35.160;26.100;2022-12-28T00:45:16;102209.81;;;11.13;100.00
56402;BME280;42299;35.160;26.100;2022-12-28T00:46:39;102218.50;;;11.11;100.00
56402;BME280;42299;35.160;26.100;2022-12-28T00:48:01;102208.84;;;11.11;100.00
56402;BME280;42299;35.160;26.100;2022-12-28T00:49:25;102215.03;;;11.12;100.00
56402;BME280;42299;35.160;26.100;2022-12-28T00:50:47;102221.22;;;11.12;100.00
56402;BME280;42299;35.160;26.100;2022-12-28T00:52:09;102219.47;;;11.13;100.00
56402;BME280;42299;35.160;26.100;2022-12-28T00:53:31;102222.19;;;11.16;100.00
56402;BME280;42299;35.160;26.100;2022-12-28T00:54:56;102216.03;;;11.15;100.00
56402;BME280;42299;35.160;26.100;2022-12-28T00:56:20;102211.59;;;11.14;100.00
56402;BME280;42299;35.160;26.100;2022-12-28T00:57:43;102214.25;;;11.14;100.00
56402;BME280;42299;35.160;26.100;2022-12-28T00:59:05;102217.72;;;11.13;100.00
56402;BME280;42299;35.160;26.100;2022-12-28T01:00:31;102207.09;;;11.12;100.00
56402;BME280;42299;35.160;26.100;2022-12-28T01:01:53;102211.41;;;11.10;100.00
56402;BME280;42299;35.160;26.100;2022-12-28T01:03:16;102206.19;;;11.11;100.00
56402;BME280;42299;35.160;26.100;2022-12-28T01:04:38;102208.78;;;11.10;100.00
56402;BME280;42299;35.160;26.100;2022-12-28T01:06:04;102217.56;;;11.09;100.00
56402;BME280;42299;35.160;26.100;2022-12-28T01:07:25;102200.91;;;11.11;100.00
56402;BME280;42299;35.160;26.100;2022-12-28T01:08:48;102202.78;;;11.14;100.00
56402;BME280;42299;35.160;26.100;2022-12-28T01:10:09;102210.75;;;11.15;100.00
56402;BME280;42299;35.160;26.100;2022-12-28T01:11:32;102205.56;;;11.18;100.00
56402;BME280;42299;35.160;26.100;2022-12-28T01:12:54;102209.94;;;11.18;100.00
56402;BME280;42299;35.160;26.100;2022-12-28T01:14:16;102208.16;;;11.17;100.00
56402;BME280;42299;35.160;26.100;2022-12-28T01:15:42;102206.47;;;11.19;100.00
56402;BME280;42299;35.160;26.100;2022-12-28T01:17:04;102208.22;;;11.18;100.00
56402;BME280;42299;35.160;26.100;2022-12-28T01:18:26;102205.63;;;11.20;100.00
56402;BME280;42299;35.160;26.100;2022-12-28T01:19:48;102205.78;;;11.25;100.00
56402;BME280;42299;35.160;26.100;2022-12-28T01:21:11;102204.94;;;11.26;100.00
56402;BME280;42299;35.160;26.100;2022-12-28T01:22:35;102202.19;;;11.23;100.00
56402;BME280;42299;35.160;26.100;2022-12-28T01:23:59;102203.91;;;11.21;100.00
56402;BME280;42299;35.160;26.100;2022-12-28T01:25:22;102191.44;;;11.18;100.00
56402;BME280;42299;35.160;26.100;2022-12-28T01:26:44;102194.91;;;11.15;100.00
56402;BME280;42299;35.160;26.100;2022-12-28T01:28:06;102200.06;;;11.12;100.00
56402;BME280;42299;35.160;26.100;2022-12-28T01:29:28;102197.34;;;11.11;100.00
56402;BME280;42299;35.160;26.100;2022-12-28T01:30:51;102200.84;;;11.10;100.00
56402;BME280;42299;35.160;26.100;2022-12-28T01:32:13;102198.38;;;11.14;100.00
56402;BME280;42299;35.160;26.100;2022-12-28T01:33:36;102195.75;;;11.14;100.00
56402;BME280;42299;35.160;26.100;2022-12-28T01:34:58;102198.38;;;11.14;100.00
56402;BME280;42299;35.160;26.100;2022-12-28T01:36:21;102201.13;;;11.17;100.00
56402;BME280;42299;35.160;26.100;2022-12-28T01:37:43;102202.09;;;11.19;100.00
56402;BME280;42299;35.160;26.100;2022-12-28T01:39:05;102194.09;;;11.18;100.00
56402;BME280;42299;35.160;26.100;2022-12-28T01:40:27;102199.31;;;11.16;100.00
56402;BME280;42299;35.160;26.100;2022-12-28T01:41:49;102201.06;;;11.16;100.00
56402;BME280;42299;35.160;26.100;2022-12-28T01:43:12;102203.66;;;11.14;100.00
56402;BME280;42299;35.160;26.100;2022-12-28T01:44:40;102199.22;;;11.13;100.00
56402;BME280;42299;35.160;26.100;2022-12-28T01:46:05;102198.25;;;11.11;100.00
56402;BME280;42299;35.160;26.100;2022-12-28T01:47:33;102197.28;;;11.09;100.00
56402;BME280;42299;35.160;26.100;2022-12-28T01:49:01;102198.09;;;11.07;100.00
56402;BME280;42299;35.160;26.100;2022-12-28T01:50:25;102198.09;;;11.07;100.00
56402;BME280;42299;35.160;26.100;2022-12-28T01:51:53;102194.56;;;11.06;100.00
56402;BME280;42299;35.160;26.100;2022-12-28T01:53:19;102201.75;;;11.10;100.00
56402;BME280;42299;35.160;26.100;2022-12-28T01:54:45;102198.47;;;11.17;100.00
56402;BME280;42299;35.160;26.100;2022-12-28T01:56:08;102193.31;;;11.21;100.00
56402;BME280;42299;35.160;26.100;2022-12-28T01:57:38;102198.53;;;11.19;100.00
56402;BME280;42299;35.160;26.100;2022-12-28T01:59:00;102197.56;;;11.17;100.00
56402;BME280;42299;35.160;26.100;2022-12-28T02:00:23;102196.59;;;11.13;100.00
56402;BME280;42299;35.160;26.100;2022-12-28T02:01:48;102189.50;;;11.12;100.00
56402;BME280;42299;35.160;26.100;2022-12-28T02:03:13;102190.34;;;11.11;100.00
56402;BME280;42299;35.160;26.100;2022-12-28T02:04:36;102192.00;;;11.09;100.00
56402;BME280;42299;35.160;26.100;2022-12-28T02:05:59;102191.91;;;11.06;100.00
56402;BME280;42299;35.160;26.100;2022-12-28T02:07:34;102183.84;;;11.03;100.00
56402;BME280;42299;35.160;26.100;2022-12-28T02:09:00;102182.09;;;11.02;100.00
56402;BME280;42299;35.160;26.100;2022-12-28T02:10:25;102181.13;;;11.00;100.00
56402;BME280;42299;35.160;26.100;2022-12-28T02:11:47;102177.50;;;10.98;100.00
56402;BME280;42299;35.160;26.100;2022-12-28T02:13:12;102184.53;;;10.98;100.00
56402;BME280;42299;35.160;26.100;2022-12-28T02:14:35;102177.41;;;10.95;100.00
56402;BME280;42299;35.160;26.100;2022-12-28T02:15:57;102178.88;;;10.87;100.00
56402;BME280;42299;35.160;26.100;2022-12-28T02:17:21;102179.72;;;10.86;100.00
56402;BME280;42299;35.160;26.100;2022-12-28T02:18:43;102182.34;;;10.86;100.00
56402;BME280;42299;35.160;26.100;2022-12-28T02:20:07;102183.19;;;10.85;100.00
56402;BME280;42299;35.160;26.100;2022-12-28T02:21:39;102172.56;;;10.84;100.00
56402;BME280;42299;35.160;26.100;2022-12-28T02:23:25;102176.00;;;10.81;100.00
56402;BME280;42299;35.160;26.100;2022-12-28T02:25:03;102173.31;;;10.79;100.00
56402;BME280;42299;35.160;26.100;2022-12-28T02:26:46;102170.59;;;10.78;100.00
56402;BME280;42299;35.160;26.100;2022-12-28T02:28:18;102170.59;;;10.78;100.00
56402;BME280;42299;35.160;26.100;2022-12-28T02:30:05;102175.88;;;10.78;100.00
56402;BME280;42299;35.160;26.100;2022-12-28T02:31:33;102175.94;;;10.79;100.00
56402;BME280;42299;35.160;26.100;2022-12-28T02:32:59;102174.25;;;10.82;100.00
56402;BME280;42299;35.160;26.100;2022-12-28T02:34:30;102161.97;;;10.82;100.00
56402;BME280;42299;35.160;26.100;2022-12-28T02:35:56;102176.94;;;10.83;100.00
56402;BME280;42299;35.160;26.100;2022-12-28T02:37:22;102176.09;;;10.84;100.00
56402;BME280;42299;35.160;26.100;2022-12-28T02:38:48;102178.03;;;10.88;100.00
56402;BME280;42299;35.160;26.100;2022-12-28T02:40:14;102171.91;;;10.89;100.00
56402;BME280;42299;35.160;26.100;2022-12-28T02:41:39;102171.94;;;10.91;100.00
56402;BME280;42299;35.160;26.100;2022-12-28T02:43:02;102171.16;;;10.93;100.00
56402;BME280;42299;35.160;26.100;2022-12-28T02:44:24;102180.09;;;10.97;100.00
56402;BME280;42299;35.160;26.100;2022-12-28T02:46:21;102172.16;;;10.97;100.00
56402;BME280;42299;35.160;26.100;2022-12-28T02:48:00;102177.50;;;10.98;100.00
56402;BME280;42299;35.160;26.100;2022-12-28T02:49:43;102174.03;;;10.99;100.00
56402;BME280;42299;35.160;26.100;2022-12-28T02:51:46;102175.00;;;11.01;100.00
56402;BME280;42299;35.160;26.100;2022-12-28T02:53:32;102170.66;;;11.03;100.00
56402;BME280;42299;35.160;26.100;2022-12-28T02:55:09;102176.91;;;11.05;100.00
56402;BME280;42299;35.160;26.100;2022-12-28T02:56:55;102181.28;;;11.05;100.00
56402;BME280;42299;35.160;26.100;2022-12-28T03:00:15;102182.19;;;11.05;100.00
56402;BME280;42299;35.160;26.100;2022-12-28T03:03:33;102177.06;;;11.10;100.00
56402;BME280;42299;35.160;26.100;2022-12-28T03:05:09;102179.81;;;11.13;100.00
56402;BME280;42299;35.160;26.100;2022-12-28T03:06:39;102178.97;;;11.14;100.00
56402;BME280;42299;35.160;26.100;2022-12-28T03:08:27;102175.53;;;11.16;100.00
56402;BME280;42299;35.160;26.100;2022-12-28T03:10:11;102173.00;;;11.19;100.00
56402;BME280;42299;35.160;26.100;2022-12-28T03:11:38;102168.69;;;11.22;100.00
56402;BME280;42299;35.160;26.100;2022-12-28T03:13:08;102172.38;;;11.27;100.00
56402;BME280;42299;35.160;26.100;2022-12-28T03:14:55;102177.94;;;11.34;100.00
56402;BME280;42299;35.160;26.100;2022-12-28T03:16:26;102175.59;;;11.42;100.00
56402;BME280;42299;35.160;26.100;2022-12-28T03:17:48;102177.56;;;11.49;100.00
56402;BME280;42299;35.160;26.100;2022-12-28T03:19:34;102177.00;;;11.57;100.00
56402;BME280;42299;35.160;26.100;2022-12-28T03:21:15;102177.13;;;11.62;100.00
56402;BME280;42299;35.160;26.100;2022-12-28T03:22:56;102171.19;;;11.68;100.00
56402;BME280;42299;35.160;26.100;2022-12-28T03:24:40;102186.28;;;11.72;100.00
56402;BME280;42299;35.160;26.100;2022-12-28T03:26:23;102171.50;;;11.77;100.00
56402;BME280;42299;35.160;26.100;2022-12-28T03:28:05;102176.97;;;11.81;100.00
56402;BME280;42299;35.160;26.100;2022-12-28T03:29:49;102177.91;;;11.83;100.00
56402;BME280;42299;35.160;26.100;2022-12-28T03:31:33;102174.41;;;11.84;100.00
56402;BME280;42299;35.160;26.100;2022-12-28T03:33:01;102171.91;;;11.89;100.00
56402;BME280;42299;35.160;26.100;2022-12-28T03:34:24;102171.19;;;11.93;100.00
56402;BME280;42299;35.160;26.100;2022-12-28T03:35:51;102173.00;;;11.95;100.00
56402;BME280;42299;35.160;26.100;2022-12-28T03:37:21;102178.41;;;11.98;100.00
56402;BME280;42299;35.160;26.100;2022-12-28T03:38:51;102183.91;;;12.05;100.00
56402;BME280;42299;35.160;26.100;2022-12-28T03:40:23;102175.19;;;12.09;100.00
56402;BME280;42299;35.160;26.100;2022-12-28T03:41:53;102174.41;;;12.11;100.00
56402;BME280;42299;35.160;26.100;2022-12-28T03:43:36;102178.91;;;12.14;100.00
56402;BME280;42299;35.160;26.100;2022-12-28T03:45:12;102177.19;;;12.16;100.00
56402;BME280;42299;35.160;26.100;2022-12-28T03:46:43;102176.47;;;12.20;100.00
56402;BME280;42299;35.160;26.100;2022-12-28T03:48:07;102179.13;;;12.21;100.00
56402;BME280;42299;35.160;26.100;2022-12-28T03:49:30;102178.28;;;12.22;100.00
56402;BME280;42299;35.160;26.100;2022-12-28T03:50:54;102183.69;;;12.25;100.00
56402;BME280;42299;35.160;26.100;2022-12-28T03:52:17;102177.56;;;12.26;100.00
56402;BME280;42299;35.160;26.100;2022-12-28T03:53:42;102174.94;;;12.28;100.00
56402;BME280;42299;35.160;26.100;2022-12-28T03:55:07;102177.69;;;12.31;100.00
56402;BME280;42299;35.160;26.100;2022-12-28T03:56:30;102182.13;;;12.32;100.00
56402;BME280;42299;35.160;26.100;2022-12-28T03:57:55;102187.50;;;12.35;100.00
56402;BME280;42299;35.160;26.100;2022-12-28T03:59:21;102189.31;;;12.36;100.00
56402;BME280;42299;35.160;26.100;2022-12-28T04:00:45;102186.78;;;12.39;100.00
56402;BME280;42299;35.160;26.100;2022-12-28T04:02:08;102188.56;;;12.40;100.00
56402;BME280;42299;35.160;26.100;2022-12-28T04:03:29;102190.34;;;12.41;100.00
56402;BME280;42299;35.160;26.100;2022-12-28T04:04:52;102185.16;;;12.44;100.00
56402;BME280;42299;35.160;26.100;2022-12-28T04:06:18;102190.53;;;12.47;100.00
56402;BME280;42299;35.160;26.100;2022-12-28T04:07:40;102184.44;;;12.50;100.00
56402;BME280;42299;35.160;26.100;2022-12-28T04:09:02;102190.75;;;12.53;100.00
56402;BME280;42299;35.160;26.100;2022-12-28T04:10:27;102185.44;;;12.53;100.00
56402;BME280;42299;35.160;26.100;2022-12-28T04:11:50;102186.31;;;12.54;100.00
56402;BME280;42299;35.160;26.100;2022-12-28T04:13:19;102188.97;;;12.54;100.00
56402;BME280;42299;35.160;26.100;2022-12-28T04:14:47;102186.38;;;12.55;100.00
56402;BME280;42299;35.160;26.100;2022-12-28T04:16:12;102191.63;;;12.54;100.00
56402;BME280;42299;35.160;26.100;2022-12-28T04:17:35;102196.00;;;12.52;100.00
56402;BME280;42299;35.160;26.100;2022-12-28T04:18:58;102191.50;;;12.49;100.00
56402;BME280;42299;35.160;26.100;2022-12-28T04:20:22;102194.97;;;12.48;100.00
56402;BME280;42299;35.160;26.100;2022-12-28T04:21:46;102202.94;;;12.48;100.00
56402;BME280;42299;35.160;26.100;2022-12-28T04:23:08;102197.63;;;12.48;100.00
56402;BME280;42299;35.160;26.100;2022-12-28T04:24:30;102208.22;;;12.48;100.00
56402;BME280;42299;35.160;26.100;2022-12-28T04:27:18;102203.81;;;12.49;100.00
56402;BME280;42299;35.160;26.100;2022-12-28T04:28:44;102210.94;;;12.50;100.00
56402;BME280;42299;35.160;26.100;2022-12-28T04:30:29;102209.13;;;12.49;100.00
56402;BME280;42299;35.160;26.100;2022-12-28T04:31:52;102203.88;;;12.50;100.00
56402;BME280;42299;35.160;26.100;2022-12-28T04:33:15;102201.34;;;12.53;100.00
56402;BME280;42299;35.160;26.100;2022-12-28T04:34:41;102209.28;;;12.53;100.00
56402;BME280;42299;35.160;26.100;2022-12-28T04:36:06;102205.75;;;12.53;100.00
56402;BME280;42299;35.160;26.100;2022-12-28T04:37:30;102203.94;;;12.52;100.00
56402;BME280;42299;35.160;26.100;2022-12-28T04:38:52;102204.69;;;12.48;100.00
56402;BME280;42299;35.160;26.100;2022-12-28T04:40:14;102208.22;;;12.47;100.00
56402;BME280;42299;35.160;26.100;2022-12-28T04:41:37;102212.53;;;12.45;100.00
56402;BME280;42299;35.160;26.100;2022-12-28T04:42:59;102209.91;;;12.45;100.00
56402;BME280;42299;35.160;26.100;2022-12-28T04:44:21;102204.53;;;12.43;100.00
56402;BME280;42299;35.160;26.100;2022-12-28T04:45:43;102208.09;;;12.44;100.00
56402;BME280;42299;35.160;26.100;2022-12-28T04:47:04;102215.25;;;12.46;100.00
56402;BME280;42299;35.160;26.100;2022-12-28T04:48:27;102219.66;;;12.47;100.00
56402;BME280;42299;35.160;26.100;2022-12-28T04:49:48;102215.19;;;12.45;100.00
56402;BME280;42299;35.160;26.100;2022-12-28T04:51:15;102209.91;;;12.45;100.00
56402;BME280;42299;35.160;26.100;2022-12-28T04:52:38;102209.91;;;12.45;100.00
56402;BME280;42299;35.160;26.100;2022-12-28T04:54:00;102209.84;;;12.43;100.00
56402;BME280;42299;35.160;26.100;2022-12-28T04:55:23;102211.66;;;12.44;100.00
56402;BME280;42299;35.160;26.100;2022-12-28T04:56:44;102220.53;;;12.46;100.00
56402;BME280;42299;35.160;26.100;2022-12-28T04:58:06;102217.91;;;12.46;100.00
56402;BME280;42299;35.160;26.100;2022-12-28T04:59:28;102215.25;;;12.46;100.00
56402;BME280;42299;35.160;26.100;2022-12-28T05:00:51;102217.03;;;12.47;100.00
56402;BME280;42299;35.160;26.100;2022-12-28T05:02:13;102221.44;;;12.47;100.00
56402;BME280;42299;35.160;26.100;2022-12-28T05:03:35;102223.09;;;12.43;100.00
56402;BME280;42299;35.160;26.100;2022-12-28T05:04:57;102223.00;;;12.40;100.00
56402;BME280;42299;35.160;26.100;2022-12-28T05:06:20;102220.25;;;12.37;100.00
56402;BME280;42299;35.160;26.100;2022-12-28T05:07:44;102220.94;;;12.31;100.00
56402;BME280;42299;35.160;26.100;2022-12-28T05:09:07;102226.06;;;12.25;100.00
56402;BME280;42299;35.160;26.100;2022-12-28T05:10:29;102226.75;;;12.20;100.00
56402;BME280;42299;35.160;26.100;2022-12-28T05:11:50;102233.75;;;12.18;100.00
56402;BME280;42299;35.160;26.100;2022-12-28T05:13:12;102236.34;;;12.16;100.00
56402;BME280;42299;35.160;26.100;2022-12-28T05:14:35;102238.97;;;12.16;100.00
56402;BME280;42299;35.160;26.100;2022-12-28T05:15:59;102232.72;;;12.14;100.00
56402;BME280;42299;35.160;26.100;2022-12-28T05:17:22;102235.34;;;12.13;100.00
56402;BME280;42299;35.160;26.100;2022-12-28T05:18:45;102232.66;;;12.11;100.00
56402;BME280;42299;35.160;26.100;2022-12-28T05:20:08;102229.09;;;12.11;100.00
56402;BME280;42299;35.160;26.100;2022-12-28T05:21:31;102226.41;;;12.09;100.00
56402;BME280;42299;35.160;26.100;2022-12-28T05:22:55;102227.22;;;12.08;100.00
56402;BME280;42299;35.160;26.100;2022-12-28T05:24:17;102223.66;;;12.06;100.00
56402;BME280;42299;35.160;26.100;2022-12-28T05:25:40;102226.31;;;12.06;100.00
56402;BME280;42299;35.160;26.100;2022-12-28T05:27:03;102233.34;;;12.06;100.00
56402;BME280;42299;35.160;26.100;2022-12-28T05:28:26;102231.53;;;12.05;100.00
56402;BME280;42299;35.160;26.100;2022-12-28T05:29:47;102228.00;;;12.04;100.00
56402;BME280;42299;35.160;26.100;2022-12-28T05:31:11;102235.94;;;12.04;100.00
56402;BME280;42299;35.160;26.100;2022-12-28T05:32:32;102233.34;;;12.06;100.00
56402;BME280;42299;35.160;26.100;2022-12-28T05:33:55;102233.34;;;12.06;100.00
56402;BME280;42299;35.160;26.100;2022-12-28T05:35:17;102232.31;;;12.02;100.00
56402;BME280;42299;35.160;26.100;2022-12-28T05:36:38;102236.72;;;12.02;100.00
56402;BME280;42299;35.160;26.100;2022-12-28T05:38:02;102236.72;;;12.02;100.00
56402;BME280;42299;35.160;26.100;2022-12-28T05:39:24;102236.72;;;12.02;100.00
56402;BME280;42299;35.160;26.100;2022-12-28T05:40:46;102243.13;;;12.08;100.00
56402;BME280;42299;35.160;26.100;2022-12-28T05:42:08;102242.53;;;12.17;100.00
56402;BME280;42299;35.160;26.100;2022-12-28T05:43:30;102246.34;;;12.25;100.00
56402;BME280;42299;35.160;26.100;2022-12-28T05:44:51;102240.41;;;12.32;100.00
56402;BME280;42299;35.160;26.100;2022-12-28T05:46:16;102244.19;;;12.40;100.00
56402;BME280;42299;35.160;26.100;2022-12-28T05:47:39;102245.28;;;12.47;100.00
56402;BME280;42299;35.160;26.100;2022-12-28T05:49:01;102250.66;;;12.50;100.00
56402;BME280;42299;35.160;26.100;2022-12-28T05:50:22;102239.22;;;12.51;100.00
56402;BME280;42299;35.160;26.100;2022-12-28T05:51:47;102247.22;;;12.52;100.00
56402;BME280;42299;35.160;26.100;2022-12-28T05:53:10;102249.03;;;12.53;100.00
56402;BME280;42299;35.160;26.100;2022-12-28T05:54:33;102245.50;;;12.54;100.00
56402;BME280;42299;35.160;26.100;2022-12-28T05:56:00;102248.19;;;12.56;100.00
56402;BME280;42299;35.160;26.100;2022-12-28T05:57:21;102252.53;;;12.52;100.00
56402;BME280;42299;35.160;26.100;2022-12-28T05:58:45;102251.44;;;12.47;100.00
56402;BME280;42299;35.160;26.100;2022-12-28T06:00:09;102250.53;;;12.45;100.00
56402;BME280;42299;35.160;26.100;2022-12-28T06:01:34;102252.34;;;12.48;100.00
56402;BME280;42299;35.160;26.100;2022-12-28T06:02:57;102254.31;;;12.53;100.00
56402;BME280;42299;35.160;26.100;2022-12-28T06:04:19;102252.66;;;12.57;100.00
56402;BME280;42299;35.160;26.100;2022-12-28T06:05:41;102251.88;;;12.59;100.00
56402;BME280;42299;35.160;26.100;2022-12-28T06:07:02;102252.72;;;12.58;100.00
56402;BME280;42299;35.160;26.100;2022-12-28T06:08:27;102248.31;;;12.59;100.00
56402;BME280;42299;35.160;26.100;2022-12-28T06:09:48;102258.09;;;12.61;100.00
56402;BME280;42299;35.160;26.100;2022-12-28T06:11:12;102255.63;;;12.67;100.00
56402;BME280;42299;35.160;26.100;2022-12-28T06:12:34;102263.03;;;12.77;100.00
56402;BME280;42299;35.160;26.100;2022-12-28T06:13:57;102260.75;;;12.90;100.00
56402;BME280;42299;35.160;26.100;2022-12-28T06:15:23;102256.63;;;12.99;100.00
56402;BME280;42299;35.160;26.100;2022-12-28T06:16:46;102256.88;;;13.08;100.00
56402;BME280;42299;35.160;26.100;2022-12-28T06:18:08;102258.91;;;13.15;100.00
56402;BME280;42299;35.160;26.100;2022-12-28T06:19:29;102264.38;;;13.22;100.00
56402;BME280;42299;35.160;26.100;2022-12-28T06:20:51;102260.94;;;13.24;100.00
56402;BME280;42299;35.160;26.100;2022-12-28T06:22:13;102263.66;;;13.27;100.00
56402;BME280;42299;35.160;26.100;2022-12-28T06:23:37;102264.47;;;13.25;100.00
56402;BME280;42299;35.160;26.100;2022-12-28T06:24:58;102262.56;;;13.21;100.00
56402;BME280;42299;35.160;26.100;2022-12-28T06:26:20;102260.06;;;13.25;100.00
56402;BME280;42299;35.160;26.100;2022-12-28T06:27:43;102262.22;;;13.38;100.00
56402;BME280;42299;35.160;26.100;2022-12-28T06:29:04;102262.56;;;13.50;100.00
56402;BME280;42299;35.160;26.100;2022-12-28T06:30:26;102266.34;;;13.59;100.00
56402;BME280;42299;35.160;26.100;2022-12-28T06:31:49;102268.25;;;13.66;100.00
56402;BME280;42299;35.160;26.100;2022-12-28T06:33:13;102262.19;;;13.70;100.00
56402;BME280;42299;35.160;26.100;2022-12-28T06:34:35;102267.50;;;13.70;100.00
56402;BME280;42299;35.160;26.100;2022-12-28T06:35:58;102269.25;;;13.69;100.00
56402;BME280;42299;35.160;26.100;2022-12-28T06:37:19;102263.09;;;13.70;100.00
56402;BME280;42299;35.160;26.100;2022-12-28T06:38:43;102270.22;;;13.73;100.00
56402;BME280;42299;35.160;26.100;2022-12-28T06:40:06;102268.63;;;13.78;100.00
56402;BME280;42299;35.160;26.100;2022-12-28T06:41:28;102266.25;;;13.88;100.00
56402;BME280;42299;35.160;26.100;2022-12-28T06:42:50;102267.34;;;13.98;100.00
56402;BME280;42299;35.160;26.100;2022-12-28T06:44:12;102261.69;;;14.17;100.00
56402;BME280;42299;35.160;26.100;2022-12-28T06:45:36;102267.50;;;14.37;100.00
56402;BME280;42299;35.160;26.100;2022-12-28T06:46:58;102266.16;;;14.54;100.00
56402;BME280;42299;35.160;26.100;2022-12-28T06:48:21;102271.84;;;14.69;100.00
56402;BME280;42299;35.160;26.100;2022-12-28T06:49:42;102263.28;;;14.83;100.00
56402;BME280;42299;35.160;26.100;2022-12-28T06:51:07;102265.44;;;15.00;100.00
56402;BME280;42299;35.160;26.100;2022-12-28T06:52:28;102261.31;;;15.14;100.00
56402;BME280;42299;35.160;26.100;2022-12-28T06:53:53;102261.59;;;15.30;100.00
56402;BME280;42299;35.160;26.100;2022-12-28T06:55:14;102261.06;;;15.46;100.00
56402;BME280;42299;35.160;26.100;2022-12-28T06:56:37;102262.25;;;15.60;100.00
56402;BME280;42299;35.160;26.100;2022-12-28T06:57:58;102260.75;;;15.74;100.00
56402;BME280;42299;35.160;26.100;2022-12-28T06:59:20;102254.78;;;15.87;100.00
56402;BME280;42299;35.160;26.100;2022-12-28T07:00:42;102257.69;;;16.01;100.00
56402;BME280;42299;35.160;26.100;2022-12-28T07:02:04;102249.00;;;16.13;100.00
56402;BME280;42299;35.160;26.100;2022-12-28T07:03:26;102248.34;;;16.26;100.00
56402;BME280;42299;35.160;26.100;2022-12-28T07:04:48;102256.50;;;16.37;100.00
56402;BME280;42299;35.160;26.100;2022-12-28T07:06:11;102251.34;;;16.47;100.00
56402;BME280;42299;35.160;26.100;2022-12-28T07:07:33;102254.19;;;16.59;100.00
56402;BME280;42299;35.160;26.100;2022-12-28T07:09:00;102250.88;;;16.72;100.00
56402;BME280;42299;35.160;26.100;2022-12-28T07:10:22;102251.91;;;16.84;100.00
56402;BME280;42299;35.160;26.100;2022-12-28T07:11:44;102243.13;;;16.94;100.00
56402;BME280;42299;35.160;26.100;2022-12-28T07:13:07;102236.13;;;17.02;100.00
56402;BME280;42299;35.160;26.100;2022-12-28T07:14:28;102247.78;;;17.08;100.00
56402;BME280;42299;35.160;26.100;2022-12-28T07:15:52;102238.06;;;17.15;100.00
56402;BME280;42299;35.160;26.100;2022-12-28T07:17:13;102239.06;;;17.22;100.00
56402;BME280;42299;35.160;26.100;2022-12-28T07:18:35;102232.94;;;17.30;100.00
56402;BME280;42299;35.160;26.100;2022-12-28T07:19:58;102240.16;;;17.40;100.00